createdAt,value
2019-01-24T00:05:58.821Z,12.79
2019-01-24T00:26:08.516Z,11.80
2019-01-24T00:46:18.103Z,11.22
2019-01-24T01:06:30.066Z,11.37
2019-01-24T01:26:29.851Z,10.84
2019-01-24T01:46:39.509Z,10.50
2019-01-24T02:06:49.137Z,10.78
2019-01-24T02:27:01.037Z,10.46
2019-01-24T02:47:00.666Z,10.15
2019-01-24T03:07:12.681Z,9.80
2019-01-24T03:27:12.327Z,9.35
2019-01-24T03:47:21.841Z,9.18
2019-01-24T04:07:31.384Z,9.70
2019-01-24T04:27:41.148Z,9.39
2019-01-24T04:47:50.763Z,9.27
2019-01-24T05:08:00.531Z,8.69
2019-01-24T05:28:10.356Z,8.50
2019-01-24T05:48:20.008Z,8.01
2019-01-24T06:08:34.246Z,8.52
2019-01-24T06:28:36.200Z,8.45
2019-01-24T06:48:35.773Z,7.70
2019-01-24T07:08:48.645Z,8.40
2019-01-24T07:28:48.261Z,8.29
2019-01-24T07:48:59.575Z,7.97
2019-01-24T08:09:06.404Z,8.04
2019-01-24T08:29:06.152Z,7.92
2019-01-24T08:49:15.879Z,7.23
2019-01-24T09:09:30.111Z,6.99
2019-01-24T09:29:30.817Z,6.42
2019-01-24T09:49:30.498Z,6.81
2019-01-24T10:09:40.091Z,6.41
2019-01-24T10:29:52.081Z,6.64
2019-01-24T10:49:53.999Z,4.80
2019-01-24T11:09:53.622Z,5.29
2019-01-24T11:30:03.264Z,5.34
2019-01-24T11:50:13.008Z,4.41
2019-01-24T12:10:24.885Z,4.46
2019-01-24T12:30:26.846Z,4.56
2019-01-24T12:50:26.574Z,4.50
2019-01-24T13:10:36.355Z,4.56
2019-01-24T13:30:45.803Z,4.64
2019-01-24T13:50:55.386Z,4.45
2019-01-24T14:11:09.488Z,4.98
2019-01-24T14:31:09.225Z,4.24
2019-01-24T14:51:19.036Z,3.66
2019-01-24T15:11:30.877Z,4.19
2019-01-24T15:31:30.624Z,5.67
2019-01-24T15:51:43.314Z,6.54
2019-01-24T16:11:43.062Z,7.86
2019-01-24T16:31:52.891Z,10.64
2019-01-24T16:52:04.775Z,12.24
2019-01-24T17:12:04.473Z,9.34
2019-01-24T17:32:14.130Z,9.36
2019-01-24T17:52:27.057Z,10.00
2019-01-24T18:12:30.952Z,8.61
2019-01-24T18:32:31.137Z,12.80
2019-01-24T18:52:31.238Z,12.82
2019-01-24T19:12:31.673Z,10.22
2019-01-24T19:32:31.438Z,9.05
2019-01-24T19:52:41.179Z,8.38
2019-01-24T20:12:51.487Z,7.54
2019-01-24T20:32:51.151Z,6.99
2019-01-24T20:53:00.700Z,7.81
2019-01-24T21:13:10.176Z,7.65
2019-01-24T21:33:19.711Z,7.71
2019-01-24T21:53:29.420Z,8.04
2019-01-24T22:13:38.905Z,10.77
2019-01-24T22:33:50.754Z,8.63
2019-01-24T22:53:50.238Z,9.20
2019-01-24T23:14:02.164Z,15.78
2019-01-24T23:34:01.575Z,16.95
2019-01-24T23:54:11.012Z,16.16
